sensor_id;sensor_type;location;lat;lon;timestamp;pressure;altitude;pressure_sealevel;temperature;humidity
9889;BME280;4983;42.112;24.738;2024-03-25T00:01:50;98071.78;;;11.53;67.39
9889;BME280;4983;42.112;24.738;2024-03-25T00:04:16;98066.13;;;11.49;68.91
9889;BME280;4983;42.112;24.738;2024-03-25T00:06:42;98056.00;;;11.46;68.35
9889;BME280;4983;42.112;24.738;2024-03-25T00:09:07;98054.53;;;11.50;68.05
9889;BME280;4983;42.112;24.738;2024-03-25T00:11:39;98050.84;;;11.51;67.71
9889;BME280;4983;42.112;24.738;2024-03-25T00:14:04;98054.66;;;11.55;67.67
9889;BME280;4983;42.112;24.738;2024-03-25T00:16:30;98044.88;;;11.62;67.06
9889;BME280;4983;42.112;24.738;2024-03-25T00:18:56;98041.38;;;11.68;66.70
9889;BME280;4983;42.112;24.738;2024-03-25T00:21:21;98060.69;;;11.69;67.36
9889;BME280;4983;42.112;24.738;2024-03-25T00:23:47;98048.13;;;11.64;66.58
9889;BME280;4983;42.112;24.738;2024-03-25T00:26:12;98035.72;;;11.58;66.64
9889;BME280;4983;42.112;24.738;2024-03-25T00:28:38;98040.13;;;11.46;67.99
9889;BME280;4983;42.112;24.738;2024-03-25T00:31:04;98035.72;;;11.40;67.32
9889;BME280;4983;42.112;24.738;2024-03-25T00:33:29;98016.13;;;11.30;68.11
9889;BME280;4983;42.112;24.738;2024-03-25T00:35:55;98021.69;;;11.22;68.93
9889;BME280;4983;42.112;24.738;2024-03-25T00:38:20;98023.72;;;11.20;69.16
9889;BME280;4983;42.112;24.738;2024-03-25T00:40:46;98038.41;;;11.16;68.30
9889;BME280;4983;42.112;24.738;2024-03-25T00:43:11;98030.84;;;11.19;67.51
9889;BME280;4983;42.112;24.738;2024-03-25T00:45:37;98013.16;;;11.20;68.52
9889;BME280;4983;42.112;24.738;2024-03-25T00:48:03;98016.44;;;11.15;67.37
9889;BME280;4983;42.112;24.738;2024-03-25T00:50:29;98031.88;;;11.18;68.70
9889;BME280;4983;42.112;24.738;2024-03-25T00:52:54;98033.88;;;11.23;68.24
9889;BME280;4983;42.112;24.738;2024-03-25T00:55:20;98034.91;;;11.22;68.02
9889;BME280;4983;42.112;24.738;2024-03-25T00:57:46;98030.03;;;11.19;67.59
9889;BME280;4983;42.112;24.738;2024-03-25T01:00:12;98018.06;;;11.16;68.74
9889;BME280;4983;42.112;24.738;2024-03-25T01:02:37;98054.66;;;11.13;68.25
9889;BME280;4983;42.112;24.738;2024-03-25T01:05:04;98094.66;;;11.16;68.64
9889;BME280;4983;42.112;24.738;2024-03-25T01:07:30;98112.44;;;11.03;69.05
9889;BME280;4983;42.112;24.738;2024-03-25T01:09:56;98146.53;;;10.80;69.94
9889;BME280;4983;42.112;24.738;2024-03-25T01:12:22;98176.44;;;10.67;71.38
9889;BME280;4983;42.112;24.738;2024-03-25T01:14:47;98181.28;;;10.70;70.00
9889;BME280;4983;42.112;24.738;2024-03-25T01:17:12;98185.69;;;10.83;71.87
9889;BME280;4983;42.112;24.738;2024-03-25T01:19:38;98196.81;;;10.91;71.48
9889;BME280;4983;42.112;24.738;2024-03-25T01:22:03;98189.34;;;10.88;71.90
9889;BME280;4983;42.112;24.738;2024-03-25T01:24:30;98183.69;;;10.78;71.73
9889;BME280;4983;42.112;24.738;2024-03-25T01:26:55;98202.75;;;10.80;72.55
9889;BME280;4983;42.112;24.738;2024-03-25T01:29:21;98218.84;;;10.72;71.18
9889;BME280;4983;42.112;24.738;2024-03-25T01:31:47;98235.69;;;10.71;70.76
9889;BME280;4983;42.112;24.738;2024-03-25T01:34:12;98246.38;;;10.32;68.51
9889;BME280;4983;42.112;24.738;2024-03-25T01:36:38;98272.78;;;10.13;68.88
9889;BME280;4983;42.112;24.738;2024-03-25T01:39:04;98286.94;;;9.79;69.00
9889;BME280;4983;42.112;24.738;2024-03-25T01:41:30;98299.03;;;9.41;70.77
9889;BME280;4983;42.112;24.738;2024-03-25T01:43:56;98285.34;;;9.05;72.05
9889;BME280;4983;42.112;24.738;2024-03-25T01:46:22;98294.19;;;8.84;72.64
9889;BME280;4983;42.112;24.738;2024-03-25T01:48:48;98298.38;;;8.72;73.67
9889;BME280;4983;42.112;24.738;2024-03-25T01:51:17;98303.94;;;8.56;75.40
9889;BME280;4983;42.112;24.738;2024-03-25T01:53:43;98305.09;;;8.47;76.22
9889;BME280;4983;42.112;24.738;2024-03-25T01:56:10;98311.00;;;8.49;76.51
9889;BME280;4983;42.112;24.738;2024-03-25T01:58:37;98317.06;;;8.50;76.64
9889;BME280;4983;42.112;24.738;2024-03-25T02:01:03;98323.84;;;8.38;77.07
9889;BME280;4983;42.112;24.738;2024-03-25T02:03:29;98325.06;;;8.14;77.61
9889;BME280;4983;42.112;24.738;2024-03-25T02:05:58;98335.69;;;8.00;77.98
9889;BME280;4983;42.112;24.738;2024-03-25T02:08:26;98319.25;;;7.91;77.78
9889;BME280;4983;42.112;24.738;2024-03-25T02:10:54;98318.19;;;7.86;79.55
9889;BME280;4983;42.112;24.738;2024-03-25T02:13:21;98318.56;;;7.83;79.38
9889;BME280;4983;42.112;24.738;2024-03-25T02:15:46;98323.66;;;7.70;79.74
9889;BME280;4983;42.112;24.738;2024-03-25T02:18:12;98316.94;;;7.61;79.73
9889;BME280;4983;42.112;24.738;2024-03-25T02:20:38;98318.56;;;7.62;81.56
9889;BME280;4983;42.112;24.738;2024-03-25T02:23:03;98304.78;;;7.60;81.40
9889;BME280;4983;42.112;24.738;2024-03-25T02:25:32;98302.78;;;7.62;79.99
9889;BME280;4983;42.112;24.738;2024-03-25T02:27:58;98306.03;;;7.64;80.67
9889;BME280;4983;42.112;24.738;2024-03-25T02:30:24;98285.66;;;7.66;80.01
9889;BME280;4983;42.112;24.738;2024-03-25T02:32:50;98292.16;;;7.70;80.23
9889;BME280;4983;42.112;24.738;2024-03-25T02:35:16;98279.84;;;7.70;80.17
9889;BME280;4983;42.112;24.738;2024-03-25T02:37:44;98287.16;;;7.75;79.85
9889;BME280;4983;42.112;24.738;2024-03-25T02:40:10;98292.84;;;7.78;80.61
9889;BME280;4983;42.112;24.738;2024-03-25T02:42:37;98291.03;;;7.79;80.94
9889;BME280;4983;42.112;24.738;2024-03-25T02:45:05;98300.94;;;7.83;80.25
9889;BME280;4983;42.112;24.738;2024-03-25T02:47:31;98303.47;;;7.91;79.26
9889;BME280;4983;42.112;24.738;2024-03-25T02:49:57;98295.44;;;7.99;78.29
9889;BME280;4983;42.112;24.738;2024-03-25T02:52:22;98291.88;;;8.07;78.12
9889;BME280;4983;42.112;24.738;2024-03-25T02:54:48;98292.84;;;8.06;77.38
9889;BME280;4983;42.112;24.738;2024-03-25T02:57:13;98295.16;;;8.15;76.60
9889;BME280;4983;42.112;24.738;2024-03-25T02:59:39;98303.47;;;8.19;75.72
9889;BME280;4983;42.112;24.738;2024-03-25T03:02:04;98305.91;;;8.20;76.79
9889;BME280;4983;42.112;24.738;2024-03-25T03:04:30;98289.50;;;8.18;76.52
9889;BME280;4983;42.112;24.738;2024-03-25T03:06:56;98298.09;;;8.27;76.93
9889;BME280;4983;42.112;24.738;2024-03-25T03:09:21;98304.22;;;8.34;76.43
9889;BME280;4983;42.112;24.738;2024-03-25T03:11:47;98284.00;;;8.34;75.58
9889;BME280;4983;42.112;24.738;2024-03-25T03:14:12;98273.28;;;8.36;76.82
9889;BME280;4983;42.112;24.738;2024-03-25T03:16:38;98275.13;;;8.42;75.33
9889;BME280;4983;42.112;24.738;2024-03-25T03:19:03;98262.78;;;8.36;76.26
9889;BME280;4983;42.112;24.738;2024-03-25T03:21:30;98268.44;;;8.39;75.80
9889;BME280;4983;42.112;24.738;2024-03-25T03:23:55;98265.63;;;8.41;76.78
9889;BME280;4983;42.112;24.738;2024-03-25T03:26:21;98258.13;;;8.38;77.05
9889;BME280;4983;42.112;24.738;2024-03-25T03:28:52;98268.44;;;8.39;77.41
9889;BME280;4983;42.112;24.738;2024-03-25T03:31:17;98271.72;;;8.41;77.84
9889;BME280;4983;42.112;24.738;2024-03-25T03:33:43;98264.69;;;8.55;77.91
9889;BME280;4983;42.112;24.738;2024-03-25T03:36:08;98264.31;;;8.64;76.81
9889;BME280;4983;42.112;24.738;2024-03-25T03:38:34;98263.38;;;8.72;76.49
9889;BME280;4983;42.112;24.738;2024-03-25T03:41:01;98262.72;;;8.63;76.78
9889;BME280;4983;42.112;24.738;2024-03-25T03:43:27;98278.47;;;8.57;77.29
9889;BME280;4983;42.112;24.738;2024-03-25T03:45:52;98289.41;;;8.60;78.31
9889;BME280;4983;42.112;24.738;2024-03-25T03:48:18;98304.03;;;8.69;77.30
9889;BME280;4983;42.112;24.738;2024-03-25T03:50:44;98301.34;;;8.63;77.25
9889;BME280;4983;42.112;24.738;2024-03-25T03:53:10;98307.16;;;8.52;76.12
9889;BME280;4983;42.112;24.738;2024-03-25T03:55:36;98304.41;;;8.32;76.48
9889;BME280;4983;42.112;24.738;2024-03-25T03:58:01;98306.94;;;8.19;77.02
9889;BME280;4983;42.112;24.738;2024-03-25T04:00:27;98319.41;;;8.11;75.32
9889;BME280;4983;42.112;24.738;2024-03-25T04:02:53;98322.53;;;8.00;74.68
9889;BME280;4983;42.112;24.738;2024-03-25T04:05:18;98328.41;;;8.02;72.74
9889;BME280;4983;42.112;24.738;2024-03-25T04:07:44;98338.69;;;7.97;75.03
9889;BME280;4983;42.112;24.738;2024-03-25T04:10:10;98339.06;;;7.94;74.43
9889;BME280;4983;42.112;24.738;2024-03-25T04:12:36;98347.69;;;7.88;73.97
9889;BME280;4983;42.112;24.738;2024-03-25T04:15:04;98353.78;;;7.88;72.82
9889;BME280;4983;42.112;24.738;2024-03-25T04:17:30;98359.94;;;7.81;72.17
9889;BME280;4983;42.112;24.738;2024-03-25T04:19:58;98371.41;;;7.73;72.99
9889;BME280;4983;42.112;24.738;2024-03-25T04:22:25;98372.97;;;7.68;72.83
9889;BME280;4983;42.112;24.738;2024-03-25T04:24:51;98373.16;;;7.66;72.86
9889;BME280;4983;42.112;24.738;2024-03-25T04:27:16;98377.94;;;7.63;71.13
9889;BME280;4983;42.112;24.738;2024-03-25T04:29:45;98383.22;;;7.63;72.21
9889;BME280;4983;42.112;24.738;2024-03-25T04:32:11;98383.16;;;7.56;72.27
9889;BME280;4983;42.112;24.738;2024-03-25T04:34:37;98397.47;;;7.54;71.98
9889;BME280;4983;42.112;24.738;2024-03-25T04:37:03;98399.44;;;7.52;71.19
9889;BME280;4983;42.112;24.738;2024-03-25T04:39:30;98402.91;;;7.52;69.49
9889;BME280;4983;42.112;24.738;2024-03-25T04:41:55;98398.63;;;7.51;70.01
9889;BME280;4983;42.112;24.738;2024-03-25T04:44:21;98405.78;;;7.57;68.67
9889;BME280;4983;42.112;24.738;2024-03-25T04:46:47;98395.72;;;7.61;67.31
9889;BME280;4983;42.112;24.738;2024-03-25T04:49:13;98396.34;;;7.63;68.42
9889;BME280;4983;42.112;24.738;2024-03-25T04:51:38;98401.34;;;7.58;69.10
9889;BME280;4983;42.112;24.738;2024-03-25T04:54:04;98397.66;;;7.52;68.68
9889;BME280;4983;42.112;24.738;2024-03-25T04:56:30;98386.97;;;7.39;71.04
9889;BME280;4983;42.112;24.738;2024-03-25T04:58:57;98396.75;;;7.45;72.11
9889;BME280;4983;42.112;24.738;2024-03-25T05:01:27;98407.09;;;7.47;71.58
9889;BME280;4983;42.112;24.738;2024-03-25T05:03:53;98406.31;;;7.53;72.84
9889;BME280;4983;42.112;24.738;2024-03-25T05:06:18;98402.41;;;7.63;71.48
9889;BME280;4983;42.112;24.738;2024-03-25T05:08:44;98408.75;;;7.69;72.28
9889;BME280;4983;42.112;24.738;2024-03-25T05:11:09;98413.63;;;7.72;71.34
9889;BME280;4983;42.112;24.738;2024-03-25T05:13:35;98403.13;;;7.72;70.80
9889;BME280;4983;42.112;24.738;2024-03-25T05:16:00;98402.34;;;7.78;69.53
9889;BME280;4983;42.112;24.738;2024-03-25T05:18:26;98434.91;;;7.98;68.53
9889;BME280;4983;42.112;24.738;2024-03-25T05:20:51;98431.72;;;8.02;69.45
9889;BME280;4983;42.112;24.738;2024-03-25T05:23:17;98442.31;;;8.09;69.38
9889;BME280;4983;42.112;24.738;2024-03-25T05:25:42;98442.31;;;8.09;70.11
9889;BME280;4983;42.112;24.738;2024-03-25T05:28:08;98432.84;;;8.14;70.00
9889;BME280;4983;42.112;24.738;2024-03-25T05:30:33;98449.06;;;8.18;68.28
9889;BME280;4983;42.112;24.738;2024-03-25T05:32:59;98452.31;;;8.20;68.93
9889;BME280;4983;42.112;24.738;2024-03-25T05:35:24;98457.88;;;8.25;67.22
9889;BME280;4983;42.112;24.738;2024-03-25T05:37:50;98447.16;;;8.26;66.99
9889;BME280;4983;42.112;24.738;2024-03-25T05:40:15;98451.84;;;8.31;66.10
9889;BME280;4983;42.112;24.738;2024-03-25T05:42:44;98459.19;;;8.35;65.64
9889;BME280;4983;42.112;24.738;2024-03-25T05:45:10;98455.16;;;8.39;64.57
9889;BME280;4983;42.112;24.738;2024-03-25T05:47:36;98449.66;;;8.55;64.06
9889;BME280;4983;42.112;24.738;2024-03-25T05:50:01;98434.34;;;8.65;63.54
9889;BME280;4983;42.112;24.738;2024-03-25T05:52:30;98454.72;;;8.84;63.95
9889;BME280;4983;42.112;24.738;2024-03-25T05:54:56;98461.63;;;8.92;62.80
9889;BME280;4983;42.112;24.738;2024-03-25T05:57:21;98470.63;;;8.97;63.28
9889;BME280;4983;42.112;24.738;2024-03-25T05:59:47;98475.88;;;8.97;61.47
9889;BME280;4983;42.112;24.738;2024-03-25T06:02:12;98480.34;;;9.03;61.58
9889;BME280;4983;42.112;24.738;2024-03-25T06:04:38;98485.78;;;8.95;61.23
9889;BME280;4983;42.112;24.738;2024-03-25T06:07:03;98493.22;;;8.92;61.29
9889;BME280;4983;42.112;24.738;2024-03-25T06:09:29;98496.28;;;8.89;62.13
9889;BME280;4983;42.112;24.738;2024-03-25T06:11:54;98500.16;;;8.93;63.11
9889;BME280;4983;42.112;24.738;2024-03-25T06:14:20;98512.66;;;8.91;62.10
9889;BME280;4983;42.112;24.738;2024-03-25T06:16:45;98517.69;;;8.86;62.77
9889;BME280;4983;42.112;24.738;2024-03-25T06:19:11;98514.13;;;8.72;61.44
9889;BME280;4983;42.112;24.738;2024-03-25T06:21:36;98532.25;;;8.61;61.20
9889;BME280;4983;42.112;24.738;2024-03-25T06:24:02;98532.25;;;8.61;61.55
9889;BME280;4983;42.112;24.738;2024-03-25T06:26:27;98526.81;;;8.62;61.69
9889;BME280;4983;42.112;24.738;2024-03-25T06:28:53;98543.56;;;8.61;62.41
9889;BME280;4983;42.112;24.738;2024-03-25T06:31:18;98527.38;;;8.58;62.16
9889;BME280;4983;42.112;24.738;2024-03-25T06:34:02;98531.00;;;8.57;61.83
9889;BME280;4983;42.112;24.738;2024-03-25T06:36:43;98522.47;;;8.55;62.13
9889;BME280;4983;42.112;24.738;2024-03-25T06:39:09;98537.63;;;8.53;62.03
9889;BME280;4983;42.112;24.738;2024-03-25T06:41:34;98526.16;;;8.60;62.45
9889;BME280;4983;42.112;24.738;2024-03-25T06:44:00;98537.06;;;8.57;62.28
9889;BME280;4983;42.112;24.738;2024-03-25T06:46:25;98557.78;;;8.67;62.37
9889;BME280;4983;42.112;24.738;2024-03-25T06:48:51;98556.00;;;8.67;61.25
9889;BME280;4983;42.112;24.738;2024-03-25T06:51:17;98563.94;;;8.74;62.41
9889;BME280;4983;42.112;24.738;2024-03-25T06:53:43;98554.69;;;8.78;61.26
9889;BME280;4983;42.112;24.738;2024-03-25T06:56:09;98560.75;;;8.78;61.88
9889;BME280;4983;42.112;24.738;2024-03-25T06:58:34;98563.06;;;8.67;60.31
9889;BME280;4983;42.112;24.738;2024-03-25T07:01:07;98577.59;;;8.63;61.18
9889;BME280;4983;42.112;24.738;2024-03-25T07:03:34;98578.78;;;8.60;61.09
9889;BME280;4983;42.112;24.738;2024-03-25T07:06:01;98588.47;;;8.60;60.24
9889;BME280;4983;42.112;24.738;2024-03-25T07:08:27;98588.13;;;8.63;61.43
9889;BME280;4983;42.112;24.738;2024-03-25T07:10:53;98587.25;;;8.98;61.62
9889;BME280;4983;42.112;24.738;2024-03-25T07:13:19;98594.50;;;9.45;60.66
9889;BME280;4983;42.112;24.738;2024-03-25T07:15:45;98593.06;;;9.70;60.07
9889;BME280;4983;42.112;24.738;2024-03-25T07:18:11;98585.44;;;9.88;57.57
9889;BME280;4983;42.112;24.738;2024-03-25T07:20:39;98593.09;;;9.76;56.70
9889;BME280;4983;42.112;24.738;2024-03-25T07:23:05;98600.03;;;9.84;56.75
9889;BME280;4983;42.112;24.738;2024-03-25T07:25:30;98602.25;;;10.21;56.23
9889;BME280;4983;42.112;24.738;2024-03-25T07:27:56;98593.06;;;10.57;55.31
9889;BME280;4983;42.112;24.738;2024-03-25T07:30:22;98591.84;;;10.60;54.82
9889;BME280;4983;42.112;24.738;2024-03-25T07:32:50;98583.66;;;10.42;54.11
9889;BME280;4983;42.112;24.738;2024-03-25T07:35:16;98594.22;;;10.48;55.66
9889;BME280;4983;42.112;24.738;2024-03-25T07:37:44;98591.25;;;10.77;56.57
9889;BME280;4983;42.112;24.738;2024-03-25T07:40:10;98593.72;;;10.85;54.50
9889;BME280;4983;42.112;24.738;2024-03-25T07:42:39;98591.69;;;10.87;53.29
9889;BME280;4983;42.112;24.738;2024-03-25T07:45:05;98601.88;;;11.03;55.66
9889;BME280;4983;42.112;24.738;2024-03-25T07:47:32;98603.69;;;11.35;52.28
9889;BME280;4983;42.112;24.738;2024-03-25T07:49:57;98604.50;;;11.36;52.87
9889;BME280;4983;42.112;24.738;2024-03-25T07:52:24;98603.50;;;11.17;50.84
9889;BME280;4983;42.112;24.738;2024-03-25T07:54:50;98608.19;;;11.22;52.43
9889;BME280;4983;42.112;24.738;2024-03-25T07:57:16;98618.53;;;11.30;52.13
9889;BME280;4983;42.112;24.738;2024-03-25T07:59:42;98612.66;;;11.34;48.04
9889;BME280;4983;42.112;24.738;2024-03-25T08:02:07;98618.72;;;11.54;50.71
9889;BME280;4983;42.112;24.738;2024-03-25T08:04:33;98607.53;;;11.78;47.48
9889;BME280;4983;42.112;24.738;2024-03-25T08:06:58;98606.91;;;11.89;47.24
9889;BME280;4983;42.112;24.738;2024-03-25T08:09:24;98599.19;;;11.75;46.43
9889;BME280;4983;42.112;24.738;2024-03-25T08:11:49;98616.47;;;11.97;46.77
9889;BME280;4983;42.112;24.738;2024-03-25T08:14:15;98622.19;;;11.74;45.49
9889;BME280;4983;42.112;24.738;2024-03-25T08:16:40;98621.19;;;11.49;48.23
9889;BME280;4983;42.112;24.738;2024-03-25T08:19:06;98617.31;;;11.19;47.24
9889;BME280;4983;42.112;24.738;2024-03-25T08:21:31;98621.38;;;11.28;47.74
9889;BME280;4983;42.112;24.738;2024-03-25T08:23:57;98616.03;;;11.93;48.06
9889;BME280;4983;42.112;24.738;2024-03-25T08:26:23;98608.72;;;11.95;45.37
9889;BME280;4983;42.112;24.738;2024-03-25T08:28:48;98593.09;;;12.38;44.60
9889;BME280;4983;42.112;24.738;2024-03-25T08:31:15;98609.38;;;12.35;43.73
9889;BME280;4983;42.112;24.738;2024-03-25T08:33:40;98597.34;;;12.46;44.19
9889;BME280;4983;42.112;24.738;2024-03-25T08:36:06;98604.16;;;12.66;44.27
9889;BME280;4983;42.112;24.738;2024-03-25T08:38:31;98611.09;;;12.61;44.04
9889;BME280;4983;42.112;24.738;2024-03-25T08:40:57;98626.00;;;12.55;43.05
9889;BME280;4983;42.112;24.738;2024-03-25T08:43:22;98632.56;;;12.84;43.06
9889;BME280;4983;42.112;24.738;2024-03-25T08:45:48;98628.44;;;12.94;40.74
9889;BME280;4983;42.112;24.738;2024-03-25T08:48:13;98633.78;;;12.88;41.47
9889;BME280;4983;42.112;24.738;2024-03-25T08:50:39;98635.88;;;12.73;40.85
9889;BME280;4983;42.112;24.738;2024-03-25T08:53:04;98660.44;;;12.99;41.79
9889;BME280;4983;42.112;24.738;2024-03-25T08:55:31;98645.50;;;13.05;40.10
9889;BME280;4983;42.112;24.738;2024-03-25T08:57:57;98649.13;;;13.17;40.26
9889;BME280;4983;42.112;24.738;2024-03-25T09:00:28;98643.50;;;13.31;39.29
9889;BME280;4983;42.112;24.738;2024-03-25T09:02:54;98629.00;;;13.58;40.43
9889;BME280;4983;42.112;24.738;2024-03-25T09:05:20;98645.56;;;13.78;40.04
9889;BME280;4983;42.112;24.738;2024-03-25T09:07:48;98647.63;;;13.76;39.19
9889;BME280;4983;42.112;24.738;2024-03-25T09:10:16;98654.13;;;13.56;39.30
9889;BME280;4983;42.112;24.738;2024-03-25T09:13:00;98638.91;;;13.45;39.13
9889;BME280;4983;42.112;24.738;2024-03-25T09:15:26;98645.88;;;13.64;40.33
9889;BME280;4983;42.112;24.738;2024-03-25T09:17:51;98655.53;;;14.19;38.37
9889;BME280;4983;42.112;24.738;2024-03-25T09:20:17;98644.44;;;14.10;36.75
9889;BME280;4983;42.112;24.738;2024-03-25T09:22:43;98652.91;;;13.76;36.70
9889;BME280;4983;42.112;24.738;2024-03-25T09:25:09;98642.00;;;14.09;39.16
9889;BME280;4983;42.112;24.738;2024-03-25T09:27:35;98631.63;;;14.25;37.42
9889;BME280;4983;42.112;24.738;2024-03-25T09:30:01;98651.25;;;14.72;39.17
9889;BME280;4983;42.112;24.738;2024-03-25T09:32:29;98642.28;;;14.73;34.49
9889;BME280;4983;42.112;24.738;2024-03-25T09:34:56;98642.28;;;14.37;36.65
9889;BME280;4983;42.112;24.738;2024-03-25T09:37:22;98632.91;;;14.16;36.88
9889;BME280;4983;42.112;24.738;2024-03-25T09:39:47;98654.25;;;14.28;38.74
9889;BME280;4983;42.112;24.738;2024-03-25T09:42:15;98651.88;;;14.56;37.10
9889;BME280;4983;42.112;24.738;2024-03-25T09:44:41;98649.34;;;14.61;35.93
9889;BME280;4983;42.112;24.738;2024-03-25T09:47:07;98636.41;;;14.82;35.74
9889;BME280;4983;42.112;24.738;2024-03-25T09:49:35;98645.00;;;14.96;36.97
9889;BME280;4983;42.112;24.738;2024-03-25T09:52:02;98633.16;;;15.10;33.74
9889;BME280;4983;42.112;24.738;2024-03-25T09:54:27;98641.06;;;14.87;34.55
9889;BME280;4983;42.112;24.738;2024-03-25T09:56:53;98647.13;;;14.76;35.40
9889;BME280;4983;42.112;24.738;2024-03-25T09:59:20;98670.03;;;14.59;34.33
9889;BME280;4983;42.112;24.738;2024-03-25T10:01:45;98653.22;;;14.47;33.17
9889;BME280;4983;42.112;24.738;2024-03-25T10:04:11;98648.41;;;14.55;35.23
9889;BME280;4983;42.112;24.738;2024-03-25T10:06:39;98662.25;;;14.75;35.09
9889;BME280;4983;42.112;24.738;2024-03-25T10:09:05;98659.22;;;15.31;34.04
9889;BME280;4983;42.112;24.738;2024-03-25T10:11:32;98672.38;;;15.26;32.98
9889;BME280;4983;42.112;24.738;2024-03-25T10:14:03;98680.88;;;15.05;33.98
9889;BME280;4983;42.112;24.738;2024-03-25T10:16:29;98656.97;;;15.17;33.27
9889;BME280;4983;42.112;24.738;2024-03-25T10:18:54;98674.91;;;15.21;32.61
9889;BME280;4983;42.112;24.738;2024-03-25T10:21:21;98672.81;;;15.41;34.15
9889;BME280;4983;42.112;24.738;2024-03-25T10:23:48;98669.50;;;15.92;32.42
9889;BME280;4983;42.112;24.738;2024-03-25T10:26:30;98666.13;;;16.42;32.57
9889;BME280;4983;42.112;24.738;2024-03-25T10:29:04;98670.75;;;16.58;33.46
9889;BME280;4983;42.112;24.738;2024-03-25T10:31:32;98680.47;;;16.30;31.27
9889;BME280;4983;42.112;24.738;2024-03-25T10:33:58;98677.00;;;16.29;29.91
9889;BME280;4983;42.112;24.738;2024-03-25T10:36:24;98684.78;;;16.42;31.80
9889;BME280;4983;42.112;24.738;2024-03-25T10:38:55;98669.16;;;16.11;28.95
9889;BME280;4983;42.112;24.738;2024-03-25T10:41:21;98672.38;;;15.15;32.01
9889;BME280;4983;42.112;24.738;2024-03-25T10:43:48;98667.38;;;15.07;33.57
9889;BME280;4983;42.112;24.738;2024-03-25T10:46:18;98675.56;;;15.05;32.11
9889;BME280;4983;42.112;24.738;2024-03-25T10:51:29;98690.56;;;14.34;32.47
9889;BME280;4983;42.112;24.738;2024-03-25T10:53:57;98677.78;;;14.00;34.71
9889;BME280;4983;42.112;24.738;2024-03-25T10:56:24;98685.09;;;14.04;35.42
9889;BME280;4983;42.112;24.738;2024-03-25T10:58:49;98685.50;;;14.62;34.56
9889;BME280;4983;42.112;24.738;2024-03-25T11:01:18;98681.28;;;14.90;33.86
9889;BME280;4983;42.112;24.738;2024-03-25T11:03:45;98679.94;;;14.81;33.04
9889;BME280;4983;42.112;24.738;2024-03-25T11:06:13;98684.19;;;14.71;33.85
9889;BME280;4983;42.112;24.738;2024-03-25T11:08:39;98689.53;;;14.35;33.42
9889;BME280;4983;42.112;24.738;2024-03-25T11:11:07;98700.88;;;13.75;34.76
9889;BME280;4983;42.112;24.738;2024-03-25T11:13:33;98696.16;;;13.52;35.15
9889;BME280;4983;42.112;24.738;2024-03-25T11:15:59;98702.38;;;13.40;35.74
9889;BME280;4983;42.112;24.738;2024-03-25T11:18:26;98702.00;;;13.36;36.63
9889;BME280;4983;42.112;24.738;2024-03-25T11:21:03;98700.88;;;13.50;34.55
9889;BME280;4983;42.112;24.738;2024-03-25T11:24:05;98698.59;;;13.54;36.38
9889;BME280;4983;42.112;24.738;2024-03-25T11:26:24;98696.84;;;13.72;34.98
9889;BME280;4983;42.112;24.738;2024-03-25T11:28:50;98696.56;;;13.56;35.69
9889;BME280;4983;42.112;24.738;2024-03-25T11:31:20;98697.84;;;13.47;36.00
9889;BME280;4983;42.112;24.738;2024-03-25T11:33:47;98696.66;;;13.43;36.23
9889;BME280;4983;42.112;24.738;2024-03-25T11:36:13;98689.03;;;13.22;35.70
9889;BME280;4983;42.112;24.738;2024-03-25T11:38:38;98703.03;;;13.04;37.06
9889;BME280;4983;42.112;24.738;2024-03-25T11:41:07;98696.47;;;13.07;36.52
9889;BME280;4983;42.112;24.738;2024-03-25T11:43:33;98697.94;;;13.03;35.59
9889;BME280;4983;42.112;24.738;2024-03-25T11:45:58;98699.38;;;12.99;35.51
9889;BME280;4983;42.112;24.738;2024-03-25T11:48:24;98702.56;;;13.14;36.77
9889;BME280;4983;42.112;24.738;2024-03-25T11:50:49;98702.03;;;13.30;36.52
9889;BME280;4983;42.112;24.738;2024-03-25T11:53:15;98710.31;;;14.13;35.23
9889;BME280;4983;42.112;24.738;2024-03-25T11:55:46;98703.81;;;14.88;33.35
9889;BME280;4983;42.112;24.738;2024-03-25T11:58:11;98701.84;;;15.43;33.59
9889;BME280;4983;42.112;24.738;2024-03-25T12:00:47;98698.19;;;15.78;31.64
9889;BME280;4983;42.112;24.738;2024-03-25T12:03:17;98706.53;;;15.70;33.67
9889;BME280;4983;42.112;24.738;2024-03-25T12:05:45;98705.31;;;15.43;32.97
9889;BME280;4983;42.112;24.738;2024-03-25T12:08:11;98705.53;;;15.12;32.13
9889;BME280;4983;42.112;24.738;2024-03-25T12:10:38;98699.53;;;14.33;33.54
9889;BME280;4983;42.112;24.738;2024-03-25T12:13:23;98708.78;;;14.06;34.40
9889;BME280;4983;42.112;24.738;2024-03-25T12:15:50;98707.59;;;14.02;34.34
9889;BME280;4983;42.112;24.738;2024-03-25T12:18:17;98716.50;;;13.89;36.67
9889;BME280;4983;42.112;24.738;2024-03-25T12:20:47;98720.06;;;13.77;36.57
9889;BME280;4983;42.112;24.738;2024-03-25T12:23:13;98727.19;;;13.52;36.14
9889;BME280;4983;42.112;24.738;2024-03-25T12:25:39;98716.16;;;13.24;36.66
9889;BME280;4983;42.112;24.738;2024-03-25T12:28:09;98720.84;;;13.22;39.42
9889;BME280;4983;42.112;24.738;2024-03-25T12:30:54;98723.75;;;13.14;39.06
9889;BME280;4983;42.112;24.738;2024-03-25T12:33:22;98723.88;;;12.88;37.58
9889;BME280;4983;42.112;24.738;2024-03-25T12:35:51;98724.06;;;12.80;38.46
9889;BME280;4983;42.112;24.738;2024-03-25T12:38:25;98723.50;;;12.78;38.22
9889;BME280;4983;42.112;24.738;2024-03-25T12:40:51;98715.91;;;13.32;36.73
9889;BME280;4983;42.112;24.738;2024-03-25T12:43:17;98711.94;;;13.96;35.04
9889;BME280;4983;42.112;24.738;2024-03-25T12:45:42;98722.44;;;14.52;34.99
9889;BME280;4983;42.112;24.738;2024-03-25T12:48:09;98714.25;;;15.01;33.93
9889;BME280;4983;42.112;24.738;2024-03-25T12:50:35;98714.28;;;14.83;33.73
9889;BME280;4983;42.112;24.738;2024-03-25T12:53:01;98721.44;;;14.04;33.34
9889;BME280;4983;42.112;24.738;2024-03-25T12:55:31;98732.94;;;13.49;31.18
9889;BME280;4983;42.112;24.738;2024-03-25T12:57:57;98730.81;;;13.26;33.47
9889;BME280;4983;42.112;24.738;2024-03-25T13:00:22;98745.78;;;13.08;34.73
9889;BME280;4983;42.112;24.738;2024-03-25T13:02:48;98736.44;;;13.05;34.87
9889;BME280;4983;42.112;24.738;2024-03-25T13:05:14;98747.72;;;12.88;34.72
9889;BME280;4983;42.112;24.738;2024-03-25T13:07:40;98749.13;;;12.84;35.03
9889;BME280;4983;42.112;24.738;2024-03-25T13:10:06;98752.81;;;12.83;35.10
9889;BME280;4983;42.112;24.738;2024-03-25T13:12:31;98757.06;;;12.84;34.37
9889;BME280;4983;42.112;24.738;2024-03-25T13:14:57;98767.06;;;12.82;34.04